Amuse — PI3644 — position and weather

sailwx.info

Track history (hours):
 
Tides and Currents Weather Stations Pressure Air Temp Water Temp Dewpoint Dewpoint Depression Visibility Wind Speed Wind Dir Waves Ship Positions

Amuse

Last reported at 2018-Jan-10 20:42 UTC. Time now 2018-Jul-20 14:14 UTC.
Position N 28°12' W 015°42'.
Warning: this ship's position is months out of date.

Length 13 m.

Type: Sailing vessel. MMSI: 244250238.

Date/timePositionNaut miles runAvg speedWind from/ knotsBaromVisibWave heightAir tempDewpointWater temp
2018-Jan-10 20:42N 28°12' W 015°42'1 4.4
2018-Jan-10 20:30N 28°12' W 015°41'2 3.9
2018-Jan-10 20:00N 28°12' W 015°39'2 3.3
2018-Jan-10 19:30N 28°12' W 015°37'2 3.1
2018-Jan-10 19:00N 28°12' W 015°35'1 2.0
2018-Jan-10 18:30N 28°12' W 015°34'1 2.8
2018-Jan-10 18:00N 28°12' W 015°32'2 3.4
2018-Jan-10 17:30N 28°12' W 015°30'2 3.2
2018-Jan-10 17:00N 28°12' W 015°28'2 4.5
2018-Jan-10 16:30N 28°12' W 015°26'3 4.9
2018-Jan-10 16:00N 28°11' W 015°23'3 5.1
2018-Jan-10 15:30N 28°09' W 015°21'1 2.9
2018-Jan-10 15:00N 28°08' W 015°21'1 2.6
2018-Jan-10 14:30N 28°07' W 015°22'3 5.0
2018-Jan-10 14:00N 28°07' W 015°25'1 1.3
2018-Jan-10 13:29N 28°08' W 015°26'  
Track history (hours):
 
Tides and Currents Weather Stations Pressure Air Temp Water Temp Dewpoint Dewpoint Depression Visibility Wind Speed Wind Dir Waves Ship Positions

Amuse

Last reported at 2018-Jan-10 20:42 UTC. Time now 2018-Jul-20 14:14 UTC.
Position N 28°12' W 015°42'.
Warning: this ship's position is months out of date.

Length 13 m.

Type: Sailing vessel. MMSI: 244250238.

Date/timePositionNaut miles runAvg speedWind from/ knotsBaromVisibWave heightAir tempDewpointWater temp
2018-Jan-10 20:42N 28°12' W 015°42'1 4.4
2018-Jan-10 20:30N 28°12' W 015°41'2 3.9
2018-Jan-10 20:00N 28°12' W 015°39'2 3.3
2018-Jan-10 19:30N 28°12' W 015°37'2 3.1
2018-Jan-10 19:00N 28°12' W 015°35'1 2.0
2018-Jan-10 18:30N 28°12' W 015°34'1 2.8
2018-Jan-10 18:00N 28°12' W 015°32'2 3.4
2018-Jan-10 17:30N 28°12' W 015°30'2 3.2
2018-Jan-10 17:00N 28°12' W 015°28'2 4.5
2018-Jan-10 16:30N 28°12' W 015°26'3 4.9
2018-Jan-10 16:00N 28°11' W 015°23'3 5.1
2018-Jan-10 15:30N 28°09' W 015°21'1 2.9
2018-Jan-10 15:00N 28°08' W 015°21'1 2.6
2018-Jan-10 14:30N 28°07' W 015°22'3 5.0
2018-Jan-10 14:00N 28°07' W 015°25'1 1.3
2018-Jan-10 13:29N 28°08' W 015°26'  

Dump ship's entire track history